Time;durP1;ratioP1;P1;durP2;ratioP2;P2;SDS_P1;SDS_P2;PMS_P1;PMS_P2;Temp;Humidity;BMP_temperature;BMP_pressure;BME280_temperature;BME280_humidity;BME280_pressure;Samples;Min_cycle;Max_cycle;Signal;HPM_P1;HPM_P2
2024/03/27 00:02:04;;;;;;;13.27;2.83;;;;;;;;;;5057790;28;20043;-77
2024/03/27 00:04:30;;;;;;;10.50;2.75;;;;;;;;;;5056832;28;20041;-76
2024/03/27 00:06:56;;;;;;;9.05;2.20;;;;;;;;;;5055990;28;20044;-76
2024/03/27 00:09:22;;;;;;;10.25;2.40;;;;;;;;;;5055429;28;20043;-76
2024/03/27 00:11:50;;;;;;;12.93;2.63;;;;;;;;;;5055697;28;20041;-77
2024/03/27 00:14:16;;;;;;;11.88;2.67;;;;;;;;;;5055174;28;20485;-76
2024/03/27 00:16:45;;;;;;;6.90;2.47;;;;;;;;;;5055396;28;20128;-76
2024/03/27 00:19:11;;;;;;;;;;;;;;;;;;5038923;28;20047;-76
2024/03/27 00:21:37;;;;;;;6.97;1.65;;;;;;;;;;5055482;28;19920;-76
2024/03/27 00:24:06;;;;;;;9.05;1.92;;;;;;;;;;5055878;28;20029;-76
2024/03/27 00:26:32;;;;;;;12.55;2.10;;;;;;;;;;5054897;28;20066;-76
2024/03/27 00:28:58;;;;;;;8.25;1.75;;;;;;;;;;5055347;28;20036;-76
2024/03/27 00:31:24;;;;;;;7.45;1.45;;;;;;;;;;5054956;28;20428;-77
2024/03/27 00:33:50;;;;;;;15.73;1.95;;;;;;;;;;5055322;28;20097;-76
2024/03/27 00:36:16;;;;;;;4.55;1.45;;;;;;;;;;5054662;28;20048;-76
2024/03/27 00:38:42;;;;;;;12.57;2.50;;;;;;;;;;5054973;28;20037;-76
2024/03/27 00:41:08;;;;;;;6.93;1.38;;;;;;;;;;5054731;28;20044;-76
2024/03/27 00:43:35;;;;;;;9.25;2.47;;;;;;;;;;5054947;28;20372;-76
2024/03/27 00:46:05;;;;;;;12.25;1.77;;;;;;;;;;5055212;28;20047;-76
2024/03/27 00:48:31;;;;;;;15.30;2.13;;;;;;;;;;5054642;28;20386;-77
2024/03/27 00:50:57;;;;;;;5.50;1.20;;;;;;;;;;5055062;28;20062;-76
2024/03/27 00:53:24;;;;;;;10.88;1.40;;;;;;;;;;5054518;28;20158;-76
2024/03/27 00:56:00;;;;;;;6.40;1.48;;;;;;;;;;5054701;28;20044;-77
2024/03/27 00:58:27;;;;;;;7.38;1.35;;;;;;;;;;5054293;28;20463;-77
2024/03/27 01:00:54;;;;;;;8.70;1.35;;;;;;;;;;5054686;28;20390;-77
2024/03/27 01:03:20;;;;;;;8.20;0.90;;;;;;;;;;5061861;28;20044;-77
2024/03/27 01:05:46;;;;;;;7.28;0.98;;;;;;;;;;5072964;28;20039;-76
2024/03/27 01:08:12;;;;;;;5.35;0.98;;;;;;;;;;5072432;28;20032;-76
2024/03/27 01:10:39;;;;;;;7.85;1.00;;;;;;;;;;5072777;28;20043;-77
2024/03/27 01:13:09;;;;;;;7.97;1.05;;;;;;;;;;5072395;28;20032;-77
2024/03/27 01:15:36;;;;;;;9.45;1.10;;;;;;;;;;5072299;28;20036;-77
2024/03/27 01:18:04;;;;;;;5.13;1.42;;;;;;;;;;5072281;28;20041;-77
2024/03/27 01:20:31;;;;;;;;;;;;;;;;;;5072635;28;20040;-76
2024/03/27 01:22:57;;;;;;;10.85;1.17;;;;;;;;;;5072516;28;19920;-77
2024/03/27 01:25:22;;;;;;;6.05;1.17;;;;;;;;;;5071087;28;20047;-77
2024/03/27 01:27:48;;;;;;;13.38;1.73;;;;;;;;;;5055700;28;20398;-77
2024/03/27 01:30:14;;;;;;;6.40;1.00;;;;;;;;;;5055270;28;20052;-77
2024/03/27 01:32:40;;;;;;;11.18;1.35;;;;;;;;;;5055597;28;20052;-77
2024/03/27 01:35:06;;;;;;;17.10;1.67;;;;;;;;;;5055138;28;20037;-77
2024/03/27 01:37:32;;;;;;;7.97;1.52;;;;;;;;;;5055464;28;20041;-77
2024/03/27 01:39:57;;;;;;;7.53;1.17;;;;;;;;;;5055585;28;20041;-77
2024/03/27 01:42:24;;;;;;;5.45;0.85;;;;;;;;;;5054260;28;21493;-77
2024/03/27 01:44:50;;;;;;;7.13;1.08;;;;;;;;;;5053964;28;20040;-77
2024/03/27 01:47:16;;;;;;;8.25;1.10;;;;;;;;;;5053550;28;20079;-77
2024/03/27 01:49:42;;;;;;;6.90;1.20;;;;;;;;;;5053862;28;20463;-76
2024/03/27 01:52:10;;;;;;;6.13;0.95;;;;;;;;;;5053497;28;20048;-76
2024/03/27 01:54:36;;;;;;;3.97;0.80;;;;;;;;;;5053723;28;20040;-76
2024/03/27 01:57:04;;;;;;;8.80;1.42;;;;;;;;;;5053813;28;20039;-77
2024/03/27 01:59:32;;;;;;;9.68;1.00;;;;;;;;;;5053402;28;20471;-77
2024/03/27 02:01:58;;;;;;;4.28;0.70;;;;;;;;;;5053806;28;20039;-76
2024/03/27 02:04:25;;;;;;;4.85;0.77;;;;;;;;;;5053002;28;20360;-76
2024/03/27 02:06:52;;;;;;;7.57;0.88;;;;;;;;;;5020524;28;20038;-76
2024/03/27 02:09:19;;;;;;;5.65;1.13;;;;;;;;;;5053088;28;20063;-77
2024/03/27 02:11:44;;;;;;;6.47;1.00;;;;;;;;;;5053388;28;20378;-75
2024/03/27 02:14:14;;;;;;;6.05;1.17;;;;;;;;;;5053169;28;20033;-76
2024/03/27 02:16:40;;;;;;;6.07;1.00;;;;;;;;;;5053176;28;20037;-76
2024/03/27 02:19:06;;;;;;;6.63;0.75;;;;;;;;;;5053167;28;20211;-77
2024/03/27 02:21:33;;;;;;;7.68;0.70;;;;;;;;;;5066346;28;20063;-77
2024/03/27 02:24:08;;;;;;;6.32;0.82;;;;;;;;;;5071791;28;20033;-77
2024/03/27 02:26:35;;;;;;;4.45;0.80;;;;;;;;;;5060694;28;20071;-77
2024/03/27 02:29:01;;;;;;;4.78;0.65;;;;;;;;;;5054746;28;20371;-76
2024/03/27 02:31:28;;;;;;;7.97;1.17;;;;;;;;;;5054445;28;20045;-76
2024/03/27 02:33:54;;;;;;;8.70;1.08;;;;;;;;;;5054913;28;20070;-75
2024/03/27 02:36:19;;;;;;;7.28;1.52;;;;;;;;;;5054113;28;20040;-76
2024/03/27 02:38:45;;;;;;;8.50;1.25;;;;;;;;;;5054821;28;20041;-76
2024/03/27 02:41:11;;;;;;;7.05;1.10;;;;;;;;;;5054384;28;20039;-77
2024/03/27 02:43:37;;;;;;;7.95;1.30;;;;;;;;;;5054772;28;20363;-76
2024/03/27 02:46:03;;;;;;;5.57;1.40;;;;;;;;;;5054817;28;20043;-77
2024/03/27 02:48:28;;;;;;;20.08;1.30;;;;;;;;;;5054341;28;20844;-76
2024/03/27 02:50:54;;;;;;;5.43;0.60;;;;;;;;;;5054719;28;20049;-75
2024/03/27 02:53:20;;;;;;;5.93;0.90;;;;;;;;;;5054301;28;20052;-76
2024/03/27 02:55:49;;;;;;;6.70;1.00;;;;;;;;;;5054723;28;20041;-76
2024/03/27 02:58:15;;;;;;;5.40;1.02;;;;;;;;;;5054135;28;20503;-77
2024/03/27 03:00:41;;;;;;;9.50;1.08;;;;;;;;;;5054599;28;20051;-76
2024/03/27 03:03:07;;;;;;;10.30;1.20;;;;;;;;;;5054163;28;20060;-76
2024/03/27 03:05:32;;;;;;;9.27;1.10;;;;;;;;;;5054490;28;20063;-76
2024/03/27 03:07:58;;;;;;;11.10;1.10;;;;;;;;;;5053342;28;20032;-77
2024/03/27 03:10:26;;;;;;;8.10;1.25;;;;;;;;;;5052587;28;20176;-77
2024/03/27 03:12:52;;;;;;;5.90;1.33;;;;;;;;;;5053101;28;20045;-77
2024/03/27 03:15:18;;;;;;;12.63;1.35;;;;;;;;;;5052636;28;20045;-76
2024/03/27 03:17:45;;;;;;;7.28;1.20;;;;;;;;;;5062553;28;20036;-77
2024/03/27 03:20:12;;;;;;;11.30;1.33;;;;;;;;;;5070319;28;20036;-77
2024/03/27 03:22:38;;;;;;;6.05;1.02;;;;;;;;;;5054326;28;20048;-77
2024/03/27 03:25:04;;;;;;;9.10;2.10;;;;;;;;;;5071636;28;20059;-76
2024/03/27 03:27:32;;;;;;;8.65;1.30;;;;;;;;;;5053039;28;20115;-76
2024/03/27 03:29:58;;;;;;;5.03;0.80;;;;;;;;;;5052992;28;20046;-77
2024/03/27 03:32:24;;;;;;;6.55;0.98;;;;;;;;;;5052490;28;20041;-76
2024/03/27 03:34:50;;;;;;;11.60;2.15;;;;;;;;;;5052451;28;20036;-77
2024/03/27 03:37:16;;;;;;;8.48;1.50;;;;;;;;;;5052522;28;20044;-76
2024/03/27 03:39:42;;;;;;;7.68;0.90;;;;;;;;;;5053804;28;20044;-77
2024/03/27 03:42:08;;;;;;;6.53;0.82;;;;;;;;;;5056200;28;20198;-77
2024/03/27 03:44:34;;;;;;;9.65;1.00;;;;;;;;;;5056136;28;20090;-77
2024/03/27 03:47:00;;;;;;;7.05;0.82;;;;;;;;;;5056408;28;20404;-77
2024/03/27 03:49:26;;;;;;;8.30;0.98;;;;;;;;;;5039195;28;20096;-77
2024/03/27 03:51:51;;;;;;;8.43;1.25;;;;;;;;;;5056225;28;20036;-77
2024/03/27 03:54:18;;;;;;;7.13;1.05;;;;;;;;;;5055587;28;20045;-77
2024/03/27 03:56:43;;;;;;;7.65;1.17;;;;;;;;;;5055942;28;20036;-76
2024/03/27 03:59:09;;;;;;;12.07;1.48;;;;;;;;;;5055782;28;20047;-76
2024/03/27 04:01:35;;;;;;;6.57;1.20;;;;;;;;;;5055872;28;20048;-76
2024/03/27 04:04:01;;;;;;;11.68;1.80;;;;;;;;;;5055967;28;20044;-76
2024/03/27 04:06:27;;;;;;;10.55;1.13;;;;;;;;;;5055288;28;20071;-76
2024/03/27 04:08:54;;;;;;;9.45;1.17;;;;;;;;;;5055835;28;20161;-76
2024/03/27 04:11:22;;;;;;;11.88;1.55;;;;;;;;;;5055195;28;20357;-76
2024/03/27 04:13:48;;;;;;;9.13;1.53;;;;;;;;;;5055626;28;20105;-76
2024/03/27 04:16:15;;;;;;;11.50;1.38;;;;;;;;;;5055116;28;20279;-76
2024/03/27 04:18:41;;;;;;;8.60;1.25;;;;;;;;;;5055387;28;20093;-77
2024/03/27 04:21:07;;;;;;;11.05;1.63;;;;;;;;;;5070552;28;20028;-76
2024/03/27 04:23:33;;;;;;;13.20;1.80;;;;;;;;;;5073224;28;20049;-76
2024/03/27 04:25:59;;;;;;;13.40;1.48;;;;;;;;;;5049630;28;20047;-76
2024/03/27 04:28:25;;;;;;;10.85;1.77;;;;;;;;;;5055031;28;20093;-75
2024/03/27 04:30:54;;;;;;;11.32;1.92;;;;;;;;;;5055044;28;20040;-76
2024/03/27 04:33:20;;;;;;;15.02;2.90;;;;;;;;;;5055005;28;20089;-76
2024/03/27 04:35:47;;;;;;;13.10;1.75;;;;;;;;;;5038445;28;20075;-76
2024/03/27 04:38:13;;;;;;;18.85;2.03;;;;;;;;;;5054713;28;20044;-76
2024/03/27 04:40:39;;;;;;;11.93;1.80;;;;;;;;;;5055025;28;20036;-75
2024/03/27 04:43:05;;;;;;;10.25;1.98;;;;;;;;;;5054805;28;20067;-75
2024/03/27 04:45:30;;;;;;;16.48;3.13;;;;;;;;;;5055058;28;20395;-76
2024/03/27 04:47:56;;;;;;;16.23;2.28;;;;;;;;;;5055071;28;20028;-75
2024/03/27 04:50:22;;;;;;;10.55;1.58;;;;;;;;;;5054077;28;20390;-76
2024/03/27 04:52:48;;;;;;;13.82;2.22;;;;;;;;;;5054301;28;20471;-76
2024/03/27 04:55:15;;;;;;;6.22;1.48;;;;;;;;;;5059572;28;20045;-76
2024/03/27 04:57:41;;;;;;;13.20;2.40;;;;;;;;;;5073073;28;20066;-76
2024/03/27 05:00:07;;;;;;;17.48;2.22;;;;;;;;;;5072675;28;20040;-75
2024/03/27 05:02:33;;;;;;;15.93;1.70;;;;;;;;;;5073053;28;20394;-76
2024/03/27 05:04:59;;;;;;;15.30;1.73;;;;;;;;;;5056367;28;20045;-76
2024/03/27 05:07:25;;;;;;;14.75;1.83;;;;;;;;;;5055875;28;20044;-76
2024/03/27 05:09:51;;;;;;;13.13;1.10;;;;;;;;;;5072721;28;20040;-76
2024/03/27 05:12:16;;;;;;;15.77;2.85;;;;;;;;;;5072293;28;20070;-76
2024/03/27 05:14:42;;;;;;;11.13;1.60;;;;;;;;;;5073300;28;20486;-76
2024/03/27 05:17:08;;;;;;;9.95;1.67;;;;;;;;;;5072176;28;20297;-76
2024/03/27 05:19:35;;;;;;;6.18;1.20;;;;;;;;;;5072548;28;20438;-76
2024/03/27 05:22:01;;;;;;;6.93;1.05;;;;;;;;;;5072793;28;20043;-76
2024/03/27 05:24:26;;;;;;;5.40;0.80;;;;;;;;;;5072548;28;20071;-76
2024/03/27 05:26:53;;;;;;;6.47;0.68;;;;;;;;;;5059335;28;20093;-76
2024/03/27 05:29:20;;;;;;;7.45;1.10;;;;;;;;;;5056194;28;20097;-75
2024/03/27 05:31:53;;;;;;;6.25;1.00;;;;;;;;;;5055578;28;20040;-76
2024/03/27 05:34:21;;;;;;;14.10;1.48;;;;;;;;;;5055634;28;20047;-76
2024/03/27 05:36:47;;;;;;;9.43;1.17;;;;;;;;;;5054781;28;20051;-76
2024/03/27 05:39:13;;;;;;;7.63;0.75;;;;;;;;;;5055034;28;20040;-79
2024/03/27 05:41:40;;;;;;;8.48;0.88;;;;;;;;;;5038859;28;20040;-77
2024/03/27 05:44:10;;;;;;;5.28;0.73;;;;;;;;;;5055285;28;20421;-77
2024/03/27 05:46:40;;;;;;;5.47;0.90;;;;;;;;;;5055473;28;20349;-77
2024/03/27 05:49:06;;;;;;;8.52;0.70;;;;;;;;;;5054868;28;20047;-76
2024/03/27 05:51:33;;;;;;;9.43;1.00;;;;;;;;;;5053564;28;20036;-76
2024/03/27 05:54:00;;;;;;;4.95;0.57;;;;;;;;;;5055305;28;20042;-77
2024/03/27 05:56:26;;;;;;;7.65;1.20;;;;;;;;;;5071021;28;20048;-77
2024/03/27 05:58:51;;;;;;;9.80;1.15;;;;;;;;;;5072283;28;20047;-77
2024/03/27 06:01:17;;;;;;;6.88;0.93;;;;;;;;;;5070902;28;20043;-76
2024/03/27 06:03:48;;;;;;;7.65;1.08;;;;;;;;;;5070608;28;20036;-77
2024/03/27 06:06:14;;;;;;;10.48;1.65;;;;;;;;;;5054651;28;20041;-77
2024/03/27 06:08:40;;;;;;;4.72;0.70;;;;;;;;;;5055296;28;20044;-79
2024/03/27 06:11:05;;;;;;;9.23;1.20;;;;;;;;;;5054664;28;20093;-77
2024/03/27 06:13:31;;;;;;;5.18;0.70;;;;;;;;;;5054203;28;20040;-76
2024/03/27 06:15:57;;;;;;;6.97;0.80;;;;;;;;;;5063536;28;20044;-77
2024/03/27 06:18:23;;;;;;;5.25;0.88;;;;;;;;;;5071122;28;20133;-77
2024/03/27 06:20:48;;;;;;;7.63;0.80;;;;;;;;;;5070329;28;20039;-77
2024/03/27 06:23:14;;;;;;;9.95;1.00;;;;;;;;;;5069654;28;20048;-77
2024/03/27 06:25:40;;;;;;;4.72;0.75;;;;;;;;;;5065428;28;20044;-77
2024/03/27 06:28:06;;;;;;;9.57;2.50;;;;;;;;;;5053806;28;20063;-77
2024/03/27 06:30:40;;;;;;;11.43;1.08;;;;;;;;;;5054812;28;20475;-75
2024/03/27 06:33:05;;;;;;;8.10;1.20;;;;;;;;;;5054885;28;20045;-76
2024/03/27 06:35:32;;;;;;;7.28;1.05;;;;;;;;;;5037673;28;20114;-77
2024/03/27 06:37:58;;;;;;;9.40;2.35;;;;;;;;;;5053337;28;20040;-76
2024/03/27 06:40:24;;;;;;;6.25;1.27;;;;;;;;;;5048301;28;20143;-75
2024/03/27 06:42:50;;;;;;;7.60;1.10;;;;;;;;;;5071451;28;20044;-76
2024/03/27 06:45:15;;;;;;;12.98;1.67;;;;;;;;;;5071080;28;20044;-76
2024/03/27 06:47:43;;;;;;;22.55;2.13;;;;;;;;;;5071321;28;20041;-77
2024/03/27 06:50:10;;;;;;;10.98;1.42;;;;;;;;;;5071091;28;20036;-77
2024/03/27 06:52:36;;;;;;;10.07;1.75;;;;;;;;;;5071542;28;20052;-76
2024/03/27 06:55:02;;;;;;;12.45;2.28;;;;;;;;;;5071306;28;20039;-77
2024/03/27 06:57:28;;;;;;;16.52;2.03;;;;;;;;;;5071055;28;20036;-76
2024/03/27 06:59:53;;;;;;;22.60;2.20;;;;;;;;;;5054635;28;20078;-76
2024/03/27 07:02:19;;;;;;;13.18;1.63;;;;;;;;;;5059629;28;20094;-76
2024/03/27 07:04:45;;;;;;;11.25;2.30;;;;;;;;;;5056963;28;20438;-76
2024/03/27 07:07:11;;;;;;;10.48;2.22;;;;;;;;;;5056762;28;20430;-76
2024/03/27 07:09:36;;;;;;;10.75;1.50;;;;;;;;;;5058294;28;20071;-77
2024/03/27 07:12:02;;;;;;;12.60;1.50;;;;;;;;;;5048919;28;20383;-77
2024/03/27 07:14:28;;;;;;;10.18;2.20;;;;;;;;;;5068001;28;20094;-83
2024/03/27 07:16:54;;;;;;;10.60;2.28;;;;;;;;;;5053092;28;20060;-77
2024/03/27 07:19:20;;;;;;;13.98;2.03;;;;;;;;;;5067476;28;20056;-77
2024/03/27 07:21:45;;;;;;;13.15;2.10;;;;;;;;;;5073261;28;20063;-77
2024/03/27 07:24:11;;;;;;;9.98;1.92;;;;;;;;;;5072850;28;20055;-77
2024/03/27 07:26:38;;;;;;;14.48;2.10;;;;;;;;;;5061459;28;20371;-76
2024/03/27 07:29:06;;;;;;;15.10;2.53;;;;;;;;;;5058476;28;20101;-75
2024/03/27 07:31:32;;;;;;;12.85;2.55;;;;;;;;;;5066037;28;20051;-76
2024/03/27 07:33:58;;;;;;;10.75;1.75;;;;;;;;;;5077149;28;20386;-77
2024/03/27 07:36:24;;;;;;;18.15;2.70;;;;;;;;;;5058266;28;20055;-77
2024/03/27 07:38:50;;;;;;;11.48;1.67;;;;;;;;;;5057041;28;20475;-76
2024/03/27 07:41:16;;;;;;;18.48;1.90;;;;;;;;;;5056588;28;20041;-77
2024/03/27 07:43:42;;;;;;;12.23;1.85;;;;;;;;;;5057595;28;20054;-76
2024/03/27 07:46:11;;;;;;;14.45;2.10;;;;;;;;;;5040493;28;20437;-76
2024/03/27 07:48:37;;;;;;;22.60;2.60;;;;;;;;;;5069933;28;20047;-76
2024/03/27 07:51:03;;;;;;;12.25;2.00;;;;;;;;;;5077701;28;20053;-77
2024/03/27 07:53:28;;;;;;;14.05;1.80;;;;;;;;;;5060728;28;20044;-76
2024/03/27 07:56:03;;;;;;;9.57;1.80;;;;;;;;;;5057499;28;20424;-76
2024/03/27 07:58:29;;;;;;;13.43;2.22;;;;;;;;;;5057266;28;20040;-76
2024/03/27 08:00:56;;;;;;;13.82;4.30;;;;;;;;;;5040403;28;20048;-77
2024/03/27 08:03:23;;;;;;;13.40;4.15;;;;;;;;;;5057249;28;20044;-77
2024/03/27 08:05:48;;;;;;;17.58;4.03;;;;;;;;;;5069798;28;20427;-77
2024/03/27 08:08:14;;;;;;;19.45;4.68;;;;;;;;;;5077072;28;20066;-77
2024/03/27 08:10:41;;;;;;;19.38;5.32;;;;;;;;;;5077678;28;20044;-77
2024/03/27 08:13:07;;;;;;;18.58;5.90;;;;;;;;;;5077372;28;20040;-76
2024/03/27 08:15:38;;;;;;;22.20;5.15;;;;;;;;;;5073153;28;20042;-77
2024/03/27 08:18:04;;;;;;;21.23;3.17;;;;;;;;;;5075360;28;20355;-77
2024/03/27 08:20:30;;;;;;;19.25;2.63;;;;;;;;;;5067174;28;20041;-76
2024/03/27 08:22:56;;;;;;;18.95;3.05;;;;;;;;;;5068649;28;20044;-77
2024/03/27 08:25:22;;;;;;;25.88;2.60;;;;;;;;;;5071665;28;20041;-76
2024/03/27 08:27:48;;;;;;;26.42;3.13;;;;;;;;;;5056878;28;20045;-76
2024/03/27 08:30:14;;;;;;;18.10;2.28;;;;;;;;;;5040050;28;20045;-76
2024/03/27 08:32:39;;;;;;;24.67;2.53;;;;;;;;;;5057110;28;20463;-76
2024/03/27 08:35:05;;;;;;;26.08;2.83;;;;;;;;;;5056252;28;20094;-76
2024/03/27 08:37:31;;;;;;;19.83;2.58;;;;;;;;;;5056651;28;20471;-76
2024/03/27 08:39:57;;;;;;;17.65;2.30;;;;;;;;;;5056873;28;20086;-76
2024/03/27 08:42:23;;;;;;;15.02;2.17;;;;;;;;;;5056335;28;20044;-76
2024/03/27 08:44:48;;;;;;;17.27;2.25;;;;;;;;;;5056726;28;20036;-76
2024/03/27 08:47:14;;;;;;;21.52;2.10;;;;;;;;;;5056185;28;20053;-76
2024/03/27 08:49:40;;;;;;;21.88;2.15;;;;;;;;;;5056711;28;20044;-76
2024/03/27 08:52:06;;;;;;;25.42;2.40;;;;;;;;;;5056209;28;20047;-76
2024/03/27 08:54:32;;;;;;;19.70;2.85;;;;;;;;;;5056424;28;20390;-76
2024/03/27 08:56:58;;;;;;;28.13;2.78;;;;;;;;;;5039895;28;20131;-76
2024/03/27 08:59:24;;;;;;;22.88;2.58;;;;;;;;;;5056199;28;20107;-76
2024/03/27 09:01:50;;;;;;;14.05;2.38;;;;;;;;;;5056298;28;20044;-77
2024/03/27 09:04:16;;;;;;;19.85;2.63;;;;;;;;;;5055814;28;20046;-77
2024/03/27 09:06:42;;;;;;;15.20;2.63;;;;;;;;;;5056346;28;20126;-76
2024/03/27 09:09:08;;;;;;;11.50;2.00;;;;;;;;;;5055683;28;20387;-76
2024/03/27 09:11:34;;;;;;;20.35;3.40;;;;;;;;;;5039633;28;20041;-77
2024/03/27 09:14:00;;;;;;;11.60;1.55;;;;;;;;;;5056175;28;20048;-77
2024/03/27 09:16:25;;;;;;;12.57;1.80;;;;;;;;;;5055371;28;20055;-76
2024/03/27 09:18:51;;;;;;;10.55;1.58;;;;;;;;;;5055813;28;20052;-77
2024/03/27 09:21:17;;;;;;;15.52;2.10;;;;;;;;;;5055526;28;20085;-76
2024/03/27 09:23:43;;;;;;;21.05;3.15;;;;;;;;;;5056003;28;20044;-76
2024/03/27 09:26:08;;;;;;;13.57;1.65;;;;;;;;;;5055268;28;20041;-77
2024/03/27 09:28:34;;;;;;;13.13;1.63;;;;;;;;;;5055843;28;20040;-76
2024/03/27 09:31:04;;;;;;;15.85;2.08;;;;;;;;;;5055581;28;20040;-76
2024/03/27 09:33:29;;;;;;;11.07;2.15;;;;;;;;;;5055725;28;20043;-76
2024/03/27 09:35:55;;;;;;;12.60;3.15;;;;;;;;;;5038962;28;20028;-76
2024/03/27 09:38:21;;;;;;;8.20;2.72;;;;;;;;;;5054564;28;20040;-76
2024/03/27 09:40:49;;;;;;;10.57;1.70;;;;;;;;;;5055776;28;20124;-76
2024/03/27 09:43:15;;;;;;;16.77;4.32;;;;;;;;;;5055136;28;20471;-77
2024/03/27 09:45:45;;;;;;;21.98;6.50;;;;;;;;;;5055656;28;20036;-76
2024/03/27 09:48:13;;;;;;;22.20;5.68;;;;;;;;;;5055154;28;20047;-77
2024/03/27 09:50:39;;;;;;;14.80;2.00;;;;;;;;;;5055512;28;20044;-76
2024/03/27 09:53:06;;;;;;;28.30;5.68;;;;;;;;;;5055059;28;20036;-77
2024/03/27 09:55:33;;;;;;;18.02;3.30;;;;;;;;;;5055096;28;20390;-76
2024/03/27 09:58:03;;;;;;;30.10;7.72;;;;;;;;;;5055330;28;20444;-76
2024/03/27 10:00:29;;;;;;;24.02;3.95;;;;;;;;;;5055027;28;20044;-76
2024/03/27 10:02:55;;;;;;;27.38;4.68;;;;;;;;;;5055212;28;20043;-76
2024/03/27 10:05:26;;;;;;;15.90;1.80;;;;;;;;;;5054913;28;20052;-77
2024/03/27 10:07:52;;;;;;;13.02;1.77;;;;;;;;;;5055139;28;20036;-76
2024/03/27 10:10:19;;;;;;;10.73;1.75;;;;;;;;;;5054814;28;20126;-76
2024/03/27 10:12:48;;;;;;;8.93;1.58;;;;;;;;;;5055282;28;20044;-77
2024/03/27 10:15:14;;;;;;;7.68;1.65;;;;;;;;;;5054806;28;20036;-76
2024/03/27 10:17:40;;;;;;;10.13;1.40;;;;;;;;;;5054994;28;20485;-76
2024/03/27 10:20:08;;;;;;;5.80;1.08;;;;;;;;;;5054406;28;20127;-76
2024/03/27 10:22:34;;;;;;;15.43;1.60;;;;;;;;;;5055025;28;20044;-76
2024/03/27 10:25:04;;;;;;;8.02;1.13;;;;;;;;;;5054849;28;20044;-75
2024/03/27 10:27:34;;;;;;;9.10;1.50;;;;;;;;;;5054653;28;20422;-76
2024/03/27 10:30:01;;;;;;;8.77;1.30;;;;;;;;;;5054854;28;20066;-76
2024/03/27 10:32:27;;;;;;;8.05;1.10;;;;;;;;;;5054419;28;20041;-76
2024/03/27 10:34:53;;;;;;;9.07;1.20;;;;;;;;;;5054733;28;20039;-76
2024/03/27 10:37:20;;;;;;;6.90;0.95;;;;;;;;;;5054336;28;20041;-77
2024/03/27 10:39:49;;;;;;;8.15;1.38;;;;;;;;;;5054935;28;20085;-76
2024/03/27 10:42:25;;;;;;;17.00;2.28;;;;;;;;;;5037862;28;20089;-76
2024/03/27 10:44:58;;;;;;;13.43;1.20;;;;;;;;;;5055006;28;20059;-76
2024/03/27 10:47:31;;;;;;;8.82;0.90;;;;;;;;;;5054440;28;20119;-76
2024/03/27 10:49:58;;;;;;;11.82;1.15;;;;;;;;;;5058363;28;20046;-76
2024/03/27 10:52:24;;;;;;;6.30;1.10;;;;;;;;;;5058436;28;24075;-76
2024/03/27 10:54:51;;;;;;;12.75;1.60;;;;;;;;;;5042400;28;20041;-76
2024/03/27 10:57:19;;;;;;;15.38;1.70;;;;;;;;;;5058171;28;20051;-76
2024/03/27 10:59:46;;;;;;;11.93;1.30;;;;;;;;;;5058634;28;20101;-76
2024/03/27 11:02:13;;;;;;;8.30;1.38;;;;;;;;;;5058110;28;20758;-76
2024/03/27 11:04:41;;;;;;;10.90;1.73;;;;;;;;;;5058642;28;20036;-76
2024/03/27 11:07:07;;;;;;;13.30;1.92;;;;;;;;;;5058149;28;20463;-76
2024/03/27 11:09:37;;;;;;;12.68;1.73;;;;;;;;;;5058565;28;20175;-76
2024/03/27 11:12:04;;;;;;;10.13;1.92;;;;;;;;;;5058483;28;20033;-76
2024/03/27 11:14:36;;;;;;;9.32;1.92;;;;;;;;;;5058205;28;20475;-76
2024/03/27 11:17:03;;;;;;;16.85;1.58;;;;;;;;;;5058207;28;20040;-77
2024/03/27 11:19:32;;;;;;;16.45;1.77;;;;;;;;;;5041149;28;20044;-76
2024/03/27 11:22:15;;;;;;;13.40;2.00;;;;;;;;;;5058286;28;20048;-76
2024/03/27 11:24:41;;;;;;;9.82;1.40;;;;;;;;;;5058135;28;20104;-76
2024/03/27 11:27:07;;;;;;;8.70;1.60;;;;;;;;;;5057605;28;20081;-76
2024/03/27 11:29:34;;;;;;;9.13;1.83;;;;;;;;;;5058153;28;20437;-76
2024/03/27 11:32:01;;;;;;;11.48;1.52;;;;;;;;;;5058128;28;20041;-77
2024/03/27 11:34:31;;;;;;;8.30;1.13;;;;;;;;;;5057571;28;20062;-76
2024/03/27 11:36:58;;;;;;;10.65;1.52;;;;;;;;;;5058057;28;20473;-76
2024/03/27 11:39:24;;;;;;;12.70;2.22;;;;;;;;;;5057555;28;20044;-76
2024/03/27 11:41:51;;;;;;;12.27;1.70;;;;;;;;;;5057877;28;20044;-76
2024/03/27 11:44:17;;;;;;;12.63;1.50;;;;;;;;;;5057472;28;20036;-76
2024/03/27 11:46:44;;;;;;;10.38;1.83;;;;;;;;;;5057704;28;20043;-76
2024/03/27 11:49:12;;;;;;;10.82;1.70;;;;;;;;;;5057375;28;20430;-76
2024/03/27 11:51:39;;;;;;;7.35;1.38;;;;;;;;;;5057760;28;20398;-75
2024/03/27 11:54:04;;;;;;;9.18;2.05;;;;;;;;;;5057406;28;20045;-76
2024/03/27 11:56:35;;;;;;;10.45;1.33;;;;;;;;;;5057544;28;20086;-76
2024/03/27 11:59:03;;;;;;;9.52;1.30;;;;;;;;;;5057603;28;20036;-76
2024/03/27 12:01:30;;;;;;;12.82;1.58;;;;;;;;;;5056590;28;20072;-76
2024/03/27 12:03:57;;;;;;;12.75;2.15;;;;;;;;;;5057422;28;20040;-75
2024/03/27 12:06:26;;;;;;;13.73;2.75;;;;;;;;;;5057019;28;20391;-76
2024/03/27 12:08:52;;;;;;;8.70;1.50;;;;;;;;;;5057410;28;20119;-76
2024/03/27 12:11:19;;;;;;;12.90;1.55;;;;;;;;;;5056941;28;20041;-76
2024/03/27 12:13:45;;;;;;;6.35;1.10;;;;;;;;;;5057327;28;20046;-75
2024/03/27 12:16:12;;;;;;;7.28;1.45;;;;;;;;;;5056601;28;20040;-76
2024/03/27 12:18:39;;;;;;;7.85;1.17;;;;;;;;;;5057026;28;20244;-76
2024/03/27 12:21:12;;;;;;;7.28;1.23;;;;;;;;;;5056585;28;20044;-76
2024/03/27 12:23:39;;;;;;;14.32;2.22;;;;;;;;;;5057161;28;20051;-76
2024/03/27 12:26:16;;;;;;;18.70;2.45;;;;;;;;;;5056526;28;20045;-76
2024/03/27 12:28:50;;;;;;;16.20;2.33;;;;;;;;;;5057181;28;20485;-75
2024/03/27 12:31:23;;;;;;;12.65;1.83;;;;;;;;;;5056440;28;20052;-76
2024/03/27 12:33:50;;;;;;;11.38;1.65;;;;;;;;;;5057007;28;20390;-76
2024/03/27 12:36:16;;;;;;;9.88;1.77;;;;;;;;;;5056174;28;20425;-76
2024/03/27 12:38:42;;;;;;;9.77;1.42;;;;;;;;;;5056890;28;20041;-76
2024/03/27 12:41:09;;;;;;;9.52;1.55;;;;;;;;;;5056379;28;20043;-75
2024/03/27 12:43:35;;;;;;;8.23;1.48;;;;;;;;;;5056696;28;20046;-76
2024/03/27 12:46:01;;;;;;;12.25;1.70;;;;;;;;;;5040116;28;20105;-75
2024/03/27 12:48:27;;;;;;;9.98;1.90;;;;;;;;;;5056087;28;20040;-76
2024/03/27 12:50:54;;;;;;;7.75;1.70;;;;;;;;;;5056518;28;20055;-76
2024/03/27 12:53:20;;;;;;;10.27;1.60;;;;;;;;;;5056199;28;20055;-75
2024/03/27 12:55:46;;;;;;;7.00;1.10;;;;;;;;;;5056540;28;20063;-76
2024/03/27 12:58:12;;;;;;;11.82;1.45;;;;;;;;;;5055422;28;20036;-76
2024/03/27 13:00:41;;;;;;;11.18;1.50;;;;;;;;;;5056886;28;20476;-76
2024/03/27 13:03:07;;;;;;;12.57;1.50;;;;;;;;;;5046605;28;20059;-76
2024/03/27 13:05:34;;;;;;;8.88;1.50;;;;;;;;;;5061706;28;20048;-76
2024/03/27 13:08:01;;;;;;;7.10;1.40;;;;;;;;;;5063825;28;20094;-76
2024/03/27 13:10:29;;;;;;;8.40;1.42;;;;;;;;;;5063515;28;20045;-76
2024/03/27 13:12:55;;;;;;;6.40;1.20;;;;;;;;;;5061953;28;20054;-76
2024/03/27 13:15:21;;;;;;;3.92;0.63;;;;;;;;;;5046919;28;20067;-76
2024/03/27 13:17:47;;;;;;;5.00;0.77;;;;;;;;;;5063500;28;20054;-76
2024/03/27 13:20:13;;;;;;;8.32;1.05;;;;;;;;;;5046471;28;20430;-76
2024/03/27 13:22:39;;;;;;;5.03;0.77;;;;;;;;;;5063740;28;20044;-76
2024/03/27 13:25:05;;;;;;;3.60;0.80;;;;;;;;;;5057538;28;20062;-75
2024/03/27 13:27:31;;;;;;;5.32;0.90;;;;;;;;;;5045188;28;20040;-76
2024/03/27 13:29:57;;;;;;;4.93;1.13;;;;;;;;;;5063567;28;20044;-76
2024/03/27 13:32:23;;;;;;;3.85;0.80;;;;;;;;;;5062392;28;20060;-76
2024/03/27 13:34:57;;;;;;;6.40;1.00;;;;;;;;;;5054466;27;20388;-76
2024/03/27 13:37:23;;;;;;;6.15;0.95;;;;;;;;;;5023546;28;20037;-75
2024/03/27 13:39:49;;;;;;;3.47;0.75;;;;;;;;;;5023634;28;20103;-75
2024/03/27 13:42:15;;;;;;;3.47;0.70;;;;;;;;;;5037120;28;20037;-75
2024/03/27 13:44:40;;;;;;;7.65;1.00;;;;;;;;;;5042998;28;20037;-74
2024/03/27 13:47:07;;;;;;;6.75;1.02;;;;;;;;;;5032103;28;20049;-76
2024/03/27 13:49:33;;;;;;;4.95;0.90;;;;;;;;;;5039476;28;20357;-75
2024/03/27 13:51:59;;;;;;;8.05;1.08;;;;;;;;;;5040953;28;20045;-75
2024/03/27 13:54:24;;;;;;;6.55;0.93;;;;;;;;;;5039987;28;20039;-75
2024/03/27 13:56:50;;;;;;;5.78;1.08;;;;;;;;;;5040314;28;20044;-78
2024/03/27 13:59:16;;;;;;;6.63;1.48;;;;;;;;;;5058482;28;20453;-76
2024/03/27 14:01:42;;;;;;;7.18;1.45;;;;;;;;;;5066078;28;20041;-75
2024/03/27 14:04:08;;;;;;;8.05;1.23;;;;;;;;;;5032648;28;20041;-75
2024/03/27 14:06:36;;;;;;;8.02;1.15;;;;;;;;;;5048282;28;20053;-75
2024/03/27 14:09:03;;;;;;;10.68;1.30;;;;;;;;;;5048328;28;20049;-75
2024/03/27 14:11:31;;;;;;;7.03;1.13;;;;;;;;;;5048019;28;20045;-77
2024/03/27 14:13:58;;;;;;;7.80;1.02;;;;;;;;;;5048242;28;20045;-75
2024/03/27 14:16:25;;;;;;;5.90;1.15;;;;;;;;;;5064319;28;20045;-75
2024/03/27 14:18:50;;;;;;;6.47;0.82;;;;;;;;;;5031694;28;20049;-75
2024/03/27 14:21:16;;;;;;;8.20;1.60;;;;;;;;;;5047755;28;20368;-75
2024/03/27 14:23:42;;;;;;;8.70;1.15;;;;;;;;;;5064682;28;20503;-77
2024/03/27 14:26:08;;;;;;;6.53;0.80;;;;;;;;;;5055906;28;20044;-77
2024/03/27 14:28:33;;;;;;;7.43;1.55;;;;;;;;;;5031637;28;20365;-75
2024/03/27 14:30:59;;;;;;;13.48;1.55;;;;;;;;;;5031418;28;20056;-75
2024/03/27 14:33:25;;;;;;;6.65;1.48;;;;;;;;;;5047308;28;20392;-75
2024/03/27 14:35:51;;;;;;;6.82;1.50;;;;;;;;;;5061339;28;20429;-75